sensor_id;sensor_type;location;lat;lon;timestamp;temperature;humidity
20457;DHT22;10387;51.102;6.848;2023-03-01T00:01:30;-0.80;99.90
20457;DHT22;10387;51.102;6.848;2023-03-01T00:03:56;-0.70;99.90
20457;DHT22;10387;51.102;6.848;2023-03-01T00:06:23;-0.60;99.90
20457;DHT22;10387;51.102;6.848;2023-03-01T00:08:50;-0.60;99.90
20457;DHT22;10387;51.102;6.848;2023-03-01T00:11:19;-0.50;99.90
20457;DHT22;10387;51.102;6.848;2023-03-01T00:13:46;-0.60;99.90
20457;DHT22;10387;51.102;6.848;2023-03-01T00:16:15;-0.50;99.90
20457;DHT22;10387;51.102;6.848;2023-03-01T00:18:42;-0.60;99.90
20457;DHT22;10387;51.102;6.848;2023-03-01T00:21:08;-0.50;99.90
20457;DHT22;10387;51.102;6.848;2023-03-01T00:23:34;-0.60;99.90
20457;DHT22;10387;51.102;6.848;2023-03-01T00:26:00;-0.60;99.90
20457;DHT22;10387;51.102;6.848;2023-03-01T00:28:26;-0.60;99.90
20457;DHT22;10387;51.102;6.848;2023-03-01T00:30:52;-0.60;99.90
20457;DHT22;10387;51.102;6.848;2023-03-01T00:33:18;-0.70;99.90
20457;DHT22;10387;51.102;6.848;2023-03-01T00:35:44;-0.60;99.90
20457;DHT22;10387;51.102;6.848;2023-03-01T00:38:09;-0.60;99.90
20457;DHT22;10387;51.102;6.848;2023-03-01T00:40:35;-0.70;99.90
20457;DHT22;10387;51.102;6.848;2023-03-01T00:43:02;-0.80;99.90
20457;DHT22;10387;51.102;6.848;2023-03-01T00:45:28;-0.80;99.90
20457;DHT22;10387;51.102;6.848;2023-03-01T00:47:56;-0.90;99.90
20457;DHT22;10387;51.102;6.848;2023-03-01T00:50:22;-0.80;99.90
20457;DHT22;10387;51.102;6.848;2023-03-01T00:52:53;-0.90;99.90
20457;DHT22;10387;51.102;6.848;2023-03-01T00:55:19;-1.00;99.90
20457;DHT22;10387;51.102;6.848;2023-03-01T00:57:44;-1.00;99.90
20457;DHT22;10387;51.102;6.848;2023-03-01T01:00:10;-1.00;99.90
20457;DHT22;10387;51.102;6.848;2023-03-01T01:02:37;-1.10;99.90
20457;DHT22;10387;51.102;6.848;2023-03-01T01:05:03;-1.10;99.90
20457;DHT22;10387;51.102;6.848;2023-03-01T01:07:29;-1.10;99.90
20457;DHT22;10387;51.102;6.848;2023-03-01T01:09:54;-1.10;99.90
20457;DHT22;10387;51.102;6.848;2023-03-01T01:12:20;-1.20;99.90
20457;DHT22;10387;51.102;6.848;2023-03-01T01:14:46;-1.30;99.90
20457;DHT22;10387;51.102;6.848;2023-03-01T01:17:11;-1.40;99.90
20457;DHT22;10387;51.102;6.848;2023-03-01T01:19:37;-1.50;99.90
20457;DHT22;10387;51.102;6.848;2023-03-01T01:22:03;-1.60;99.90
20457;DHT22;10387;51.102;6.848;2023-03-01T01:24:29;-1.60;99.90
20457;DHT22;10387;51.102;6.848;2023-03-01T01:26:55;-1.70;99.90
20457;DHT22;10387;51.102;6.848;2023-03-01T01:29:20;-1.80;99.90
20457;DHT22;10387;51.102;6.848;2023-03-01T01:31:46;-1.90;99.90
20457;DHT22;10387;51.102;6.848;2023-03-01T01:34:15;-2.00;99.90
20457;DHT22;10387;51.102;6.848;2023-03-01T01:36:41;-2.10;99.90
20457;DHT22;10387;51.102;6.848;2023-03-01T01:39:06;-2.10;99.90
20457;DHT22;10387;51.102;6.848;2023-03-01T01:41:33;-2.10;99.90
20457;DHT22;10387;51.102;6.848;2023-03-01T01:47:02;-2.10;99.90
20457;DHT22;10387;51.102;6.848;2023-03-01T01:49:44;-2.10;99.90
20457;DHT22;10387;51.102;6.848;2023-03-01T01:52:27;-2.10;99.90
20457;DHT22;10387;51.102;6.848;2023-03-01T01:57:32;-2.00;99.90
20457;DHT22;10387;51.102;6.848;2023-03-01T02:00:03;-1.90;99.90
20457;DHT22;10387;51.102;6.848;2023-03-01T02:02:39;-1.90;99.90
20457;DHT22;10387;51.102;6.848;2023-03-01T02:05:11;-1.90;99.90
20457;DHT22;10387;51.102;6.848;2023-03-01T02:07:42;-1.90;99.90
20457;DHT22;10387;51.102;6.848;2023-03-01T02:10:08;-2.00;99.90
20457;DHT22;10387;51.102;6.848;2023-03-01T02:12:36;-2.00;99.90
20457;DHT22;10387;51.102;6.848;2023-03-01T02:15:03;-2.00;99.90
20457;DHT22;10387;51.102;6.848;2023-03-01T02:17:30;-2.00;99.90
20457;DHT22;10387;51.102;6.848;2023-03-01T02:20:31;-2.00;99.90
20457;DHT22;10387;51.102;6.848;2023-03-01T02:22:58;-1.90;99.90
20457;DHT22;10387;51.102;6.848;2023-03-01T02:28:17;-1.80;99.90
20457;DHT22;10387;51.102;6.848;2023-03-01T02:30:47;-1.70;99.90
20457;DHT22;10387;51.102;6.848;2023-03-01T02:33:35;-1.70;99.90
20457;DHT22;10387;51.102;6.848;2023-03-01T02:36:09;-1.70;99.90
20457;DHT22;10387;51.102;6.848;2023-03-01T02:38:36;-1.80;99.90
20457;DHT22;10387;51.102;6.848;2023-03-01T02:41:03;-1.80;99.90
20457;DHT22;10387;51.102;6.848;2023-03-01T02:43:32;-2.00;99.90
20457;DHT22;10387;51.102;6.848;2023-03-01T02:46:07;-2.10;99.90
20457;DHT22;10387;51.102;6.848;2023-03-01T02:48:42;-2.30;99.90
20457;DHT22;10387;51.102;6.848;2023-03-01T02:54:05;-2.40;99.90
20457;DHT22;10387;51.102;6.848;2023-03-01T02:56:33;-2.60;99.90
20457;DHT22;10387;51.102;6.848;2023-03-01T02:59:00;-2.60;99.90
20457;DHT22;10387;51.102;6.848;2023-03-01T03:01:27;-2.70;99.90
20457;DHT22;10387;51.102;6.848;2023-03-01T03:04:08;-2.80;99.90
20457;DHT22;10387;51.102;6.848;2023-03-01T03:06:35;-2.90;99.90
20457;DHT22;10387;51.102;6.848;2023-03-01T03:09:03;-2.90;99.90
20457;DHT22;10387;51.102;6.848;2023-03-01T03:11:30;-2.90;99.90
20457;DHT22;10387;51.102;6.848;2023-03-01T03:13:56;-2.90;99.90
20457;DHT22;10387;51.102;6.848;2023-03-01T03:16:23;-3.00;99.90
20457;DHT22;10387;51.102;6.848;2023-03-01T03:18:50;-3.00;99.90
20457;DHT22;10387;51.102;6.848;2023-03-01T03:21:16;-2.90;99.90
20457;DHT22;10387;51.102;6.848;2023-03-01T03:23:42;-2.80;99.90
20457;DHT22;10387;51.102;6.848;2023-03-01T03:26:09;-2.70;99.90
20457;DHT22;10387;51.102;6.848;2023-03-01T03:28:39;-2.70;99.90
20457;DHT22;10387;51.102;6.848;2023-03-01T03:31:06;-2.80;99.90
20457;DHT22;10387;51.102;6.848;2023-03-01T03:33:32;-2.90;99.90
20457;DHT22;10387;51.102;6.848;2023-03-01T03:35:58;-2.80;99.90
20457;DHT22;10387;51.102;6.848;2023-03-01T03:38:24;-2.90;99.90
20457;DHT22;10387;51.102;6.848;2023-03-01T03:41:00;-2.90;99.90
20457;DHT22;10387;51.102;6.848;2023-03-01T03:43:29;-2.90;99.90
20457;DHT22;10387;51.102;6.848;2023-03-01T03:45:55;-2.80;99.90
20457;DHT22;10387;51.102;6.848;2023-03-01T03:48:23;-2.70;99.90
20457;DHT22;10387;51.102;6.848;2023-03-01T03:50:53;-2.60;99.90
20457;DHT22;10387;51.102;6.848;2023-03-01T03:53:21;-2.60;99.90
20457;DHT22;10387;51.102;6.848;2023-03-01T03:55:47;-2.60;99.90
20457;DHT22;10387;51.102;6.848;2023-03-01T03:58:15;-2.60;99.90
20457;DHT22;10387;51.102;6.848;2023-03-01T04:00:44;-2.60;99.90
20457;DHT22;10387;51.102;6.848;2023-03-01T04:03:11;-2.70;99.90
20457;DHT22;10387;51.102;6.848;2023-03-01T04:05:39;-2.70;99.90
20457;DHT22;10387;51.102;6.848;2023-03-01T04:08:06;-2.80;99.90
20457;DHT22;10387;51.102;6.848;2023-03-01T04:10:38;-2.80;99.90
20457;DHT22;10387;51.102;6.848;2023-03-01T04:13:10;-2.90;99.90
20457;DHT22;10387;51.102;6.848;2023-03-01T04:15:36;-2.90;99.90
20457;DHT22;10387;51.102;6.848;2023-03-01T04:18:02;-3.00;99.90
20457;DHT22;10387;51.102;6.848;2023-03-01T04:20:31;-3.00;99.90
20457;DHT22;10387;51.102;6.848;2023-03-01T04:23:08;-3.00;99.90
20457;DHT22;10387;51.102;6.848;2023-03-01T04:28:08;-2.90;99.90
20457;DHT22;10387;51.102;6.848;2023-03-01T04:30:35;-2.90;99.90
20457;DHT22;10387;51.102;6.848;2023-03-01T04:33:03;-3.00;99.90
20457;DHT22;10387;51.102;6.848;2023-03-01T04:35:29;-3.10;99.90
20457;DHT22;10387;51.102;6.848;2023-03-01T04:37:57;-3.10;99.90
20457;DHT22;10387;51.102;6.848;2023-03-01T04:40:22;-3.10;99.90
20457;DHT22;10387;51.102;6.848;2023-03-01T04:42:48;-3.10;99.90
20457;DHT22;10387;51.102;6.848;2023-03-01T04:45:14;-3.20;99.90
20457;DHT22;10387;51.102;6.848;2023-03-01T04:47:44;-3.20;99.90
20457;DHT22;10387;51.102;6.848;2023-03-01T04:50:13;-3.20;99.90
20457;DHT22;10387;51.102;6.848;2023-03-01T04:52:39;-3.10;99.90
20457;DHT22;10387;51.102;6.848;2023-03-01T04:55:06;-3.10;99.90
20457;DHT22;10387;51.102;6.848;2023-03-01T04:57:32;-3.20;99.90
20457;DHT22;10387;51.102;6.848;2023-03-01T04:59:58;-3.30;99.90
20457;DHT22;10387;51.102;6.848;2023-03-01T05:02:24;-3.30;99.90
20457;DHT22;10387;51.102;6.848;2023-03-01T05:04:49;-3.40;99.90
20457;DHT22;10387;51.102;6.848;2023-03-01T05:07:15;-3.40;99.90
20457;DHT22;10387;51.102;6.848;2023-03-01T05:09:48;-3.40;99.90
20457;DHT22;10387;51.102;6.848;2023-03-01T05:12:14;-3.30;99.90
20457;DHT22;10387;51.102;6.848;2023-03-01T05:14:40;-3.30;99.90
20457;DHT22;10387;51.102;6.848;2023-03-01T05:17:06;-3.30;99.90
20457;DHT22;10387;51.102;6.848;2023-03-01T05:19:32;-3.30;99.90
20457;DHT22;10387;51.102;6.848;2023-03-01T05:21:58;-3.20;99.90
20457;DHT22;10387;51.102;6.848;2023-03-01T05:24:29;-3.40;99.90
20457;DHT22;10387;51.102;6.848;2023-03-01T05:26:55;-3.40;99.90
20457;DHT22;10387;51.102;6.848;2023-03-01T05:29:21;-3.40;99.90
20457;DHT22;10387;51.102;6.848;2023-03-01T05:32:00;-3.40;99.90
20457;DHT22;10387;51.102;6.848;2023-03-01T05:34:29;-3.50;99.90
20457;DHT22;10387;51.102;6.848;2023-03-01T05:36:55;-3.40;99.90
20457;DHT22;10387;51.102;6.848;2023-03-01T05:39:22;-3.40;99.90
20457;DHT22;10387;51.102;6.848;2023-03-01T05:41:52;-3.40;99.90
20457;DHT22;10387;51.102;6.848;2023-03-01T05:44:18;-3.50;99.90
20457;DHT22;10387;51.102;6.848;2023-03-01T05:46:44;-3.60;99.90
20457;DHT22;10387;51.102;6.848;2023-03-01T05:49:11;-3.70;99.90
20457;DHT22;10387;51.102;6.848;2023-03-01T05:51:39;-3.70;99.90
20457;DHT22;10387;51.102;6.848;2023-03-01T05:54:05;-3.80;99.90
20457;DHT22;10387;51.102;6.848;2023-03-01T05:56:33;-3.80;99.90
20457;DHT22;10387;51.102;6.848;2023-03-01T05:59:00;-3.90;99.90
20457;DHT22;10387;51.102;6.848;2023-03-01T06:01:26;-4.00;99.90
20457;DHT22;10387;51.102;6.848;2023-03-01T06:03:51;-4.00;99.90
20457;DHT22;10387;51.102;6.848;2023-03-01T06:06:17;-4.00;99.90
20457;DHT22;10387;51.102;6.848;2023-03-01T06:08:43;-4.00;99.90
20457;DHT22;10387;51.102;6.848;2023-03-01T06:11:09;-4.10;99.90
20457;DHT22;10387;51.102;6.848;2023-03-01T06:13:34;-4.10;99.90
20457;DHT22;10387;51.102;6.848;2023-03-01T06:16:00;-4.00;99.90
20457;DHT22;10387;51.102;6.848;2023-03-01T06:18:25;-4.10;99.90
20457;DHT22;10387;51.102;6.848;2023-03-01T06:20:55;-4.10;99.90
20457;DHT22;10387;51.102;6.848;2023-03-01T06:23:22;-4.00;99.90
20457;DHT22;10387;51.102;6.848;2023-03-01T06:25:48;-4.00;99.90
20457;DHT22;10387;51.102;6.848;2023-03-01T06:28:14;-3.90;99.90
20457;DHT22;10387;51.102;6.848;2023-03-01T06:30:40;-3.80;99.90
20457;DHT22;10387;51.102;6.848;2023-03-01T06:33:06;-3.70;99.90
20457;DHT22;10387;51.102;6.848;2023-03-01T06:35:31;-3.70;99.90
20457;DHT22;10387;51.102;6.848;2023-03-01T06:37:59;-3.60;99.90
20457;DHT22;10387;51.102;6.848;2023-03-01T06:40:25;-3.60;99.90
20457;DHT22;10387;51.102;6.848;2023-03-01T06:42:51;-3.50;99.90
20457;DHT22;10387;51.102;6.848;2023-03-01T06:45:18;-3.40;99.90
20457;DHT22;10387;51.102;6.848;2023-03-01T06:47:44;-3.40;99.90
20457;DHT22;10387;51.102;6.848;2023-03-01T06:50:10;-3.40;99.90
20457;DHT22;10387;51.102;6.848;2023-03-01T06:52:36;-3.40;99.90
20457;DHT22;10387;51.102;6.848;2023-03-01T06:55:02;-3.40;99.90
20457;DHT22;10387;51.102;6.848;2023-03-01T06:57:28;-3.40;99.90
20457;DHT22;10387;51.102;6.848;2023-03-01T06:59:54;-3.30;99.90
20457;DHT22;10387;51.102;6.848;2023-03-01T07:02:20;-3.30;99.90
20457;DHT22;10387;51.102;6.848;2023-03-01T07:04:46;-3.20;99.90
20457;DHT22;10387;51.102;6.848;2023-03-01T07:07:12;-3.20;99.90
20457;DHT22;10387;51.102;6.848;2023-03-01T07:09:37;-3.20;99.90
20457;DHT22;10387;51.102;6.848;2023-03-01T07:12:03;-3.10;99.90
20457;DHT22;10387;51.102;6.848;2023-03-01T07:14:29;-3.00;99.90
20457;DHT22;10387;51.102;6.848;2023-03-01T07:16:55;-2.90;99.90
20457;DHT22;10387;51.102;6.848;2023-03-01T07:19:21;-2.80;99.90
20457;DHT22;10387;51.102;6.848;2023-03-01T07:21:47;-2.60;99.90
20457;DHT22;10387;51.102;6.848;2023-03-01T07:24:13;-2.50;99.90
20457;DHT22;10387;51.102;6.848;2023-03-01T07:26:39;-2.40;99.90
20457;DHT22;10387;51.102;6.848;2023-03-01T07:29:06;-2.20;99.90
20457;DHT22;10387;51.102;6.848;2023-03-01T07:31:32;-2.10;99.90
20457;DHT22;10387;51.102;6.848;2023-03-01T07:33:58;-1.90;99.90
20457;DHT22;10387;51.102;6.848;2023-03-01T07:36:25;-1.80;99.90
20457;DHT22;10387;51.102;6.848;2023-03-01T07:38:51;-1.70;99.90
20457;DHT22;10387;51.102;6.848;2023-03-01T07:41:16;-1.60;99.90
20457;DHT22;10387;51.102;6.848;2023-03-01T07:43:42;-1.50;99.90
20457;DHT22;10387;51.102;6.848;2023-03-01T07:46:09;-1.40;99.90
20457;DHT22;10387;51.102;6.848;2023-03-01T07:48:35;-1.20;99.90
20457;DHT22;10387;51.102;6.848;2023-03-01T07:51:02;-1.10;99.90
20457;DHT22;10387;51.102;6.848;2023-03-01T07:53:28;-0.90;99.90
20457;DHT22;10387;51.102;6.848;2023-03-01T07:56:05;-0.80;99.90
20457;DHT22;10387;51.102;6.848;2023-03-01T07:58:30;-0.60;99.90
20457;DHT22;10387;51.102;6.848;2023-03-01T08:01:00;-0.50;99.90
20457;DHT22;10387;51.102;6.848;2023-03-01T08:03:26;-0.40;99.90
20457;DHT22;10387;51.102;6.848;2023-03-01T08:05:51;-0.20;99.90
20457;DHT22;10387;51.102;6.848;2023-03-01T08:08:17;0.00;99.90
20457;DHT22;10387;51.102;6.848;2023-03-01T08:10:42;0.10;99.90
20457;DHT22;10387;51.102;6.848;2023-03-01T08:13:08;0.20;99.90
20457;DHT22;10387;51.102;6.848;2023-03-01T08:15:33;0.30;99.90
20457;DHT22;10387;51.102;6.848;2023-03-01T08:17:59;0.40;99.90
20457;DHT22;10387;51.102;6.848;2023-03-01T08:20:26;0.60;99.90
20457;DHT22;10387;51.102;6.848;2023-03-01T08:22:52;0.70;99.90
20457;DHT22;10387;51.102;6.848;2023-03-01T08:25:18;0.80;99.90
20457;DHT22;10387;51.102;6.848;2023-03-01T08:27:43;0.90;99.90
20457;DHT22;10387;51.102;6.848;2023-03-01T08:30:09;1.00;99.90
20457;DHT22;10387;51.102;6.848;2023-03-01T08:32:37;1.10;99.90
20457;DHT22;10387;51.102;6.848;2023-03-01T08:35:04;1.20;99.90
20457;DHT22;10387;51.102;6.848;2023-03-01T08:37:30;1.40;99.90
20457;DHT22;10387;51.102;6.848;2023-03-01T08:39:59;1.40;99.90
20457;DHT22;10387;51.102;6.848;2023-03-01T08:42:25;1.50;99.90
20457;DHT22;10387;51.102;6.848;2023-03-01T08:44:52;1.60;99.90
20457;DHT22;10387;51.102;6.848;2023-03-01T08:47:18;1.70;99.90
20457;DHT22;10387;51.102;6.848;2023-03-01T08:49:44;1.80;99.90
20457;DHT22;10387;51.102;6.848;2023-03-01T08:52:09;2.00;99.90
20457;DHT22;10387;51.102;6.848;2023-03-01T08:54:36;2.10;99.90
20457;DHT22;10387;51.102;6.848;2023-03-01T08:57:02;2.30;99.90
20457;DHT22;10387;51.102;6.848;2023-03-01T08:59:28;2.50;99.90
20457;DHT22;10387;51.102;6.848;2023-03-01T09:01:55;2.60;99.90
20457;DHT22;10387;51.102;6.848;2023-03-01T09:04:21;2.70;99.90
20457;DHT22;10387;51.102;6.848;2023-03-01T09:06:46;2.80;99.90
20457;DHT22;10387;51.102;6.848;2023-03-01T09:09:17;2.90;99.90
20457;DHT22;10387;51.102;6.848;2023-03-01T09:11:44;3.00;99.90
20457;DHT22;10387;51.102;6.848;2023-03-01T09:14:12;3.10;99.90
20457;DHT22;10387;51.102;6.848;2023-03-01T09:16:37;3.20;99.90
20457;DHT22;10387;51.102;6.848;2023-03-01T09:19:04;3.30;99.90
20457;DHT22;10387;51.102;6.848;2023-03-01T09:21:29;3.30;99.90
20457;DHT22;10387;51.102;6.848;2023-03-01T09:23:57;3.40;99.90
20457;DHT22;10387;51.102;6.848;2023-03-01T09:26:23;3.50;99.90
20457;DHT22;10387;51.102;6.848;2023-03-01T09:28:51;3.50;99.90
20457;DHT22;10387;51.102;6.848;2023-03-01T09:31:18;3.50;99.90
20457;DHT22;10387;51.102;6.848;2023-03-01T09:33:49;3.50;99.90
20457;DHT22;10387;51.102;6.848;2023-03-01T09:36:17;3.60;99.90
20457;DHT22;10387;51.102;6.848;2023-03-01T09:38:47;3.60;99.90
20457;DHT22;10387;51.102;6.848;2023-03-01T09:46:59;3.90;99.90
20457;DHT22;10387;51.102;6.848;2023-03-01T09:49:28;4.00;99.90
20457;DHT22;10387;51.102;6.848;2023-03-01T09:54:40;4.10;99.90
20457;DHT22;10387;51.102;6.848;2023-03-01T09:57:19;4.20;99.90
20457;DHT22;10387;51.102;6.848;2023-03-01T10:02:48;4.20;99.90
20457;DHT22;10387;51.102;6.848;2023-03-01T10:08:46;4.30;99.90
20457;DHT22;10387;51.102;6.848;2023-03-01T10:11:35;4.50;99.90
20457;DHT22;10387;51.102;6.848;2023-03-01T10:17:02;4.60;99.90
20457;DHT22;10387;51.102;6.848;2023-03-01T10:19:49;4.70;99.90
20457;DHT22;10387;51.102;6.848;2023-03-01T10:24:47;4.80;99.90
20457;DHT22;10387;51.102;6.848;2023-03-01T10:27:23;4.80;99.90
20457;DHT22;10387;51.102;6.848;2023-03-01T10:32:18;4.90;99.90
20457;DHT22;10387;51.102;6.848;2023-03-01T10:34:44;5.00;99.90
20457;DHT22;10387;51.102;6.848;2023-03-01T10:37:17;4.90;99.90
20457;DHT22;10387;51.102;6.848;2023-03-01T10:40:02;5.00;99.90
20457;DHT22;10387;51.102;6.848;2023-03-01T10:42:38;5.10;99.90
20457;DHT22;10387;51.102;6.848;2023-03-01T10:45:33;5.10;99.90
20457;DHT22;10387;51.102;6.848;2023-03-01T10:48:26;5.20;99.90
20457;DHT22;10387;51.102;6.848;2023-03-01T10:56:07;5.30;99.90
20457;DHT22;10387;51.102;6.848;2023-03-01T10:58:38;5.30;99.90
20457;DHT22;10387;51.102;6.848;2023-03-01T11:01:05;5.30;99.90
20457;DHT22;10387;51.102;6.848;2023-03-01T11:03:37;5.40;99.90
20457;DHT22;10387;51.102;6.848;2023-03-01T11:06:22;5.50;99.90
20457;DHT22;10387;51.102;6.848;2023-03-01T11:08:49;5.50;99.90
20457;DHT22;10387;51.102;6.848;2023-03-01T11:11:23;5.60;99.90
20457;DHT22;10387;51.102;6.848;2023-03-01T11:13:56;5.70;99.90
20457;DHT22;10387;51.102;6.848;2023-03-01T11:16:35;5.70;99.90
20457;DHT22;10387;51.102;6.848;2023-03-01T11:19:15;5.80;99.90
20457;DHT22;10387;51.102;6.848;2023-03-01T11:24:32;5.70;99.90
20457;DHT22;10387;51.102;6.848;2023-03-01T11:27:03;5.80;99.90
20457;DHT22;10387;51.102;6.848;2023-03-01T11:29:35;5.80;99.90
20457;DHT22;10387;51.102;6.848;2023-03-01T11:32:04;5.80;99.90
20457;DHT22;10387;51.102;6.848;2023-03-01T11:34:51;5.90;99.90
20457;DHT22;10387;51.102;6.848;2023-03-01T11:37:31;6.00;99.90
20457;DHT22;10387;51.102;6.848;2023-03-01T11:40:11;6.10;99.90
20457;DHT22;10387;51.102;6.848;2023-03-01T11:45:19;6.20;99.90
20457;DHT22;10387;51.102;6.848;2023-03-01T11:50:45;6.20;99.90
20457;DHT22;10387;51.102;6.848;2023-03-01T11:59:16;6.30;99.90
20457;DHT22;10387;51.102;6.848;2023-03-01T12:02:15;6.30;99.90
20457;DHT22;10387;51.102;6.848;2023-03-01T12:18:21;6.80;99.90
20457;DHT22;10387;51.102;6.848;2023-03-01T12:21:20;6.70;99.90
20457;DHT22;10387;51.102;6.848;2023-03-01T12:24:05;6.80;99.90
20457;DHT22;10387;51.102;6.848;2023-03-01T12:26:45;6.90;99.90
20457;DHT22;10387;51.102;6.848;2023-03-01T12:29:25;6.90;99.90
20457;DHT22;10387;51.102;6.848;2023-03-01T12:32:04;6.90;99.90
20457;DHT22;10387;51.102;6.848;2023-03-01T12:35:00;6.80;99.90
20457;DHT22;10387;51.102;6.848;2023-03-01T12:40:33;7.00;99.90
20457;DHT22;10387;51.102;6.848;2023-03-01T12:43:27;6.80;99.90
20457;DHT22;10387;51.102;6.848;2023-03-01T12:46:34;6.70;99.90
20457;DHT22;10387;51.102;6.848;2023-03-01T12:49:30;6.70;99.90
20457;DHT22;10387;51.102;6.848;2023-03-01T12:52:16;6.70;99.90
20457;DHT22;10387;51.102;6.848;2023-03-01T12:54:45;6.80;99.90
20457;DHT22;10387;51.102;6.848;2023-03-01T12:57:29;6.80;99.90
20457;DHT22;10387;51.102;6.848;2023-03-01T13:03:39;6.90;99.90
20457;DHT22;10387;51.102;6.848;2023-03-01T13:08:26;6.90;99.90
20457;DHT22;10387;51.102;6.848;2023-03-01T13:11:00;6.90;99.90
20457;DHT22;10387;51.102;6.848;2023-03-01T13:13:27;6.80;99.90
20457;DHT22;10387;51.102;6.848;2023-03-01T13:15:54;6.90;99.90
20457;DHT22;10387;51.102;6.848;2023-03-01T13:20:50;7.00;99.90
20457;DHT22;10387;51.102;6.848;2023-03-01T13:31:36;7.10;99.90
20457;DHT22;10387;51.102;6.848;2023-03-01T13:34:00;7.00;99.90
20457;DHT22;10387;51.102;6.848;2023-03-01T13:50:01;7.20;99.90
20457;DHT22;10387;51.102;6.848;2023-03-01T13:55:42;7.30;99.90
20457;DHT22;10387;51.102;6.848;2023-03-01T13:58:44;7.30;99.90
20457;DHT22;10387;51.102;6.848;2023-03-01T14:01:29;7.20;99.90
20457;DHT22;10387;51.102;6.848;2023-03-01T14:03:55;7.30;99.90
20457;DHT22;10387;51.102;6.848;2023-03-01T14:06:25;7.30;99.90
20457;DHT22;10387;51.102;6.848;2023-03-01T14:20:12;7.00;99.90
20457;DHT22;10387;51.102;6.848;2023-03-01T14:22:40;7.10;99.90
20457;DHT22;10387;51.102;6.848;2023-03-01T14:25:21;7.20;99.90
20457;DHT22;10387;51.102;6.848;2023-03-01T14:28:02;7.20;99.90
20457;DHT22;10387;51.102;6.848;2023-03-01T14:30:37;7.20;99.90
20457;DHT22;10387;51.102;6.848;2023-03-01T14:33:05;7.20;99.90
20457;DHT22;10387;51.102;6.848;2023-03-01T14:35:35;7.10;99.90
20457;DHT22;10387;51.102;6.848;2023-03-01T14:38:01;7.00;99.90
20457;DHT22;10387;51.102;6.848;2023-03-01T14:40:34;7.00;99.90
20457;DHT22;10387;51.102;6.848;2023-03-01T14:43:02;7.00;99.90
20457;DHT22;10387;51.102;6.848;2023-03-01T14:45:33;7.00;99.90
20457;DHT22;10387;51.102;6.848;2023-03-01T14:48:02;7.10;99.90
20457;DHT22;10387;51.102;6.848;2023-03-01T14:50:32;7.20;99.90
20457;DHT22;10387;51.102;6.848;2023-03-01T14:53:05;7.20;99.90
20457;DHT22;10387;51.102;6.848;2023-03-01T14:55:37;7.30;99.90
20457;DHT22;10387;51.102;6.848;2023-03-01T14:58:05;7.30;99.90
20457;DHT22;10387;51.102;6.848;2023-03-01T15:00:33;7.30;99.90
20457;DHT22;10387;51.102;6.848;2023-03-01T15:03:36;7.40;99.90
20457;DHT22;10387;51.102;6.848;2023-03-01T15:06:07;7.40;99.90
20457;DHT22;10387;51.102;6.848;2023-03-01T15:08:34;7.40;99.90
20457;DHT22;10387;51.102;6.848;2023-03-01T15:13:41;7.40;99.90
20457;DHT22;10387;51.102;6.848;2023-03-01T15:16:12;7.40;99.90
20457;DHT22;10387;51.102;6.848;2023-03-01T15:19:06;7.30;99.90
20457;DHT22;10387;51.102;6.848;2023-03-01T15:21:35;7.30;99.90
20457;DHT22;10387;51.102;6.848;2023-03-01T15:26:50;7.20;99.90
20457;DHT22;10387;51.102;6.848;2023-03-01T15:29:22;7.20;99.90
20457;DHT22;10387;51.102;6.848;2023-03-01T15:34:46;7.00;99.90
20457;DHT22;10387;51.102;6.848;2023-03-01T15:39:59;7.10;99.90
20457;DHT22;10387;51.102;6.848;2023-03-01T15:47:48;7.10;99.90
20457;DHT22;10387;51.102;6.848;2023-03-01T15:52:46;7.10;99.90
20457;DHT22;10387;51.102;6.848;2023-03-01T15:55:31;7.00;99.90
20457;DHT22;10387;51.102;6.848;2023-03-01T15:58:00;7.00;99.90
20457;DHT22;10387;51.102;6.848;2023-03-01T16:00:27;7.00;99.90
20457;DHT22;10387;51.102;6.848;2023-03-01T16:02:52;6.90;99.90
20457;DHT22;10387;51.102;6.848;2023-03-01T16:05:24;6.90;99.90
20457;DHT22;10387;51.102;6.848;2023-03-01T16:07:51;6.80;99.90
20457;DHT22;10387;51.102;6.848;2023-03-01T16:10:17;6.80;99.90
20457;DHT22;10387;51.102;6.848;2023-03-01T16:12:42;6.70;99.90
20457;DHT22;10387;51.102;6.848;2023-03-01T16:15:19;6.70;99.90
20457;DHT22;10387;51.102;6.848;2023-03-01T16:17:45;6.60;99.90
20457;DHT22;10387;51.102;6.848;2023-03-01T16:20:21;6.60;99.90
20457;DHT22;10387;51.102;6.848;2023-03-01T16:22:47;6.60;99.90
20457;DHT22;10387;51.102;6.848;2023-03-01T16:25:15;6.60;99.90
20457;DHT22;10387;51.102;6.848;2023-03-01T16:27:45;6.50;99.90
20457;DHT22;10387;51.102;6.848;2023-03-01T16:30:13;6.50;99.90
20457;DHT22;10387;51.102;6.848;2023-03-01T16:32:44;6.70;99.90
20457;DHT22;10387;51.102;6.848;2023-03-01T16:35:11;7.00;99.90
20457;DHT22;10387;51.102;6.848;2023-03-01T16:37:38;7.40;99.90
20457;DHT22;10387;51.102;6.848;2023-03-01T16:40:05;7.80;99.90
20457;DHT22;10387;51.102;6.848;2023-03-01T16:42:36;7.90;99.90
20457;DHT22;10387;51.102;6.848;2023-03-01T16:45:06;7.70;99.90
20457;DHT22;10387;51.102;6.848;2023-03-01T16:47:33;7.30;99.90
20457;DHT22;10387;51.102;6.848;2023-03-01T16:49:59;6.80;99.90
20457;DHT22;10387;51.102;6.848;2023-03-01T16:52:25;6.50;99.90
20457;DHT22;10387;51.102;6.848;2023-03-01T16:54:52;6.20;99.90
20457;DHT22;10387;51.102;6.848;2023-03-01T16:57:18;6.00;99.90
20457;DHT22;10387;51.102;6.848;2023-03-01T16:59:44;5.90;99.90
20457;DHT22;10387;51.102;6.848;2023-03-01T17:02:13;5.70;99.90
20457;DHT22;10387;51.102;6.848;2023-03-01T17:04:40;5.70;99.90
20457;DHT22;10387;51.102;6.848;2023-03-01T17:07:06;5.60;99.90
20457;DHT22;10387;51.102;6.848;2023-03-01T17:09:38;5.50;99.90
20457;DHT22;10387;51.102;6.848;2023-03-01T17:12:04;5.40;99.90
20457;DHT22;10387;51.102;6.848;2023-03-01T17:14:30;5.30;99.90
20457;DHT22;10387;51.102;6.848;2023-03-01T17:16:55;5.30;99.90
20457;DHT22;10387;51.102;6.848;2023-03-01T17:19:21;5.30;99.90
20457;DHT22;10387;51.102;6.848;2023-03-01T17:21:47;5.20;99.90
20457;DHT22;10387;51.102;6.848;2023-03-01T17:24:13;5.20;99.90
20457;DHT22;10387;51.102;6.848;2023-03-01T17:26:39;5.10;99.90
20457;DHT22;10387;51.102;6.848;2023-03-01T17:29:05;5.00;99.90
20457;DHT22;10387;51.102;6.848;2023-03-01T17:31:32;5.00;99.90
20457;DHT22;10387;51.102;6.848;2023-03-01T17:33:58;4.90;99.90
20457;DHT22;10387;51.102;6.848;2023-03-01T17:36:24;4.80;99.90
20457;DHT22;10387;51.102;6.848;2023-03-01T17:38:51;4.60;99.90
20457;DHT22;10387;51.102;6.848;2023-03-01T17:41:17;4.50;99.90
20457;DHT22;10387;51.102;6.848;2023-03-01T17:43:46;4.40;99.90
20457;DHT22;10387;51.102;6.848;2023-03-01T17:46:15;4.30;99.90
20457;DHT22;10387;51.102;6.848;2023-03-01T17:48:41;4.10;99.90
20457;DHT22;10387;51.102;6.848;2023-03-01T17:51:08;4.00;99.90
20457;DHT22;10387;51.102;6.848;2023-03-01T17:53:34;4.00;99.90
20457;DHT22;10387;51.102;6.848;2023-03-01T17:56:03;4.00;99.90
20457;DHT22;10387;51.102;6.848;2023-03-01T17:58:29;4.00;99.90
20457;DHT22;10387;51.102;6.848;2023-03-01T18:00:55;3.90;99.90
20457;DHT22;10387;51.102;6.848;2023-03-01T18:03:21;4.00;99.90
20457;DHT22;10387;51.102;6.848;2023-03-01T18:05:47;4.00;99.90
20457;DHT22;10387;51.102;6.848;2023-03-01T18:08:13;4.10;99.90